Terminal Aerodrome Forecast
Issued by NWS Sterling, VA

Current Version | Previous Version | Text Only | Print | Product List | Glossary Off
Versions: 1 2 3 4 5 6 7 8 9 10 11 12 13 14 15

000
FTUS41 KLWX 132328
TAFMRB
TAF
KMRB 132328Z 1400/1424 35006KT P6SM OVC150
     FM140600 VRB03KT 6SM -SNPL BR OVC040
     FM140900 VRB03KT 6SM -SNPL BR OVC035
     FM141200 VRB03KT 5SM -FZRAPL BR OVC020
     FM141500 13005KT 3SM -FZRAPL BR OVC008=

USA.gov is the U.S. government's official web portal to all federal, state and local government web resources and services.